createdAt,value
2023-04-14T00:02:09.570Z,5.77
2023-04-14T00:04:36.926Z,5.43
2023-04-14T00:07:04.047Z,5.90
2023-04-14T00:09:30.916Z,6.00
2023-04-14T00:11:58.065Z,6.30
2023-04-14T00:14:24.987Z,5.60
2023-04-14T00:16:51.993Z,5.73
2023-04-14T00:19:18.988Z,9.23
2023-04-14T00:21:45.992Z,5.37
2023-04-14T00:24:12.846Z,5.90
2023-04-14T00:26:39.882Z,5.87
2023-04-14T00:29:06.776Z,5.07
2023-04-14T00:31:34.393Z,6.77
2023-04-14T00:34:01.350Z,5.77
2023-04-14T00:36:28.992Z,9.23
2023-04-14T00:38:56.079Z,5.30
2023-04-14T00:41:24.846Z,5.60
2023-04-14T00:43:55.525Z,5.40
2023-04-14T00:46:22.801Z,6.13
2023-04-14T00:48:50.297Z,6.47
2023-04-14T00:51:17.503Z,5.33
2023-04-14T00:53:44.645Z,5.80
2023-04-14T00:56:12.433Z,5.33
2023-04-14T00:58:39.507Z,5.90
2023-04-14T01:01:06.703Z,6.37
2023-04-14T01:03:34.182Z,5.40
2023-04-14T01:06:01.402Z,6.90
2023-04-14T01:08:28.652Z,5.87
2023-04-14T01:11:12.005Z,6.03
2023-04-14T01:13:59.192Z,6.47
2023-04-14T01:16:33.733Z,5.57
2023-04-14T01:19:21.034Z,4.77
2023-04-14T01:21:53.219Z,6.10
2023-04-14T01:24:41.011Z,6.17
2023-04-14T01:27:40.670Z,6.17
2023-04-14T01:30:22.457Z,6.23
2023-04-14T01:32:53.574Z,5.27
2023-04-14T01:35:33.451Z,5.17
2023-04-14T01:38:06.329Z,5.30
2023-04-14T01:40:35.178Z,4.87
2023-04-14T01:43:08.496Z,8.57
2023-04-14T01:45:44.403Z,4.83
2023-04-14T01:48:12.425Z,5.80
2023-04-14T01:50:41.967Z,5.60
2023-04-14T01:53:12.430Z,5.00
2023-04-14T01:55:41.678Z,5.07
2023-04-14T01:58:09.963Z,5.13
2023-04-14T02:00:40.631Z,4.73
2023-04-14T02:03:07.868Z,3.73
2023-04-14T02:05:38.528Z,4.33
2023-04-14T02:08:10.288Z,5.40
2023-04-14T02:10:40.630Z,4.43
2023-04-14T02:13:10.619Z,4.30
2023-04-14T02:15:40.751Z,4.00
2023-04-14T02:18:08.327Z,5.30
2023-04-14T02:20:42.651Z,4.00
2023-04-14T02:23:12.082Z,3.70
2023-04-14T02:25:46.166Z,3.93
2023-04-14T02:28:27.102Z,4.23
2023-04-14T02:30:57.868Z,3.50
2023-04-14T02:33:31.533Z,3.97
2023-04-14T02:36:29.369Z,3.77
2023-04-14T02:39:01.086Z,3.87
2023-04-14T02:41:30.730Z,4.53
2023-04-14T02:44:27.388Z,4.20
2023-04-14T02:47:11.738Z,4.23
2023-04-14T02:49:46.830Z,5.50
2023-04-14T02:52:17.752Z,4.97
2023-04-14T02:54:47.992Z,4.37
2023-04-14T02:57:16.517Z,4.37
2023-04-14T02:59:47.699Z,4.80
2023-04-14T03:02:17.638Z,4.30
2023-04-14T03:04:50.073Z,4.60
2023-04-14T03:07:28.114Z,4.80
2023-04-14T03:09:55.877Z,4.23
2023-04-14T03:12:24.905Z,5.00
2023-04-14T03:14:53.068Z,4.97
2023-04-14T03:17:21.791Z,4.37
2023-04-14T03:19:52.658Z,4.80
2023-04-14T03:22:22.184Z,5.40
2023-04-14T03:24:50.819Z,4.53
2023-04-14T03:27:22.972Z,4.93
2023-04-14T03:29:53.722Z,6.30
2023-04-14T03:32:25.927Z,4.83
2023-04-14T03:34:58.011Z,5.53
2023-04-14T03:37:28.102Z,5.87
2023-04-14T03:40:00.655Z,5.77
2023-04-14T03:42:30.554Z,5.90
2023-04-14T03:45:00.479Z,5.67
2023-04-14T03:47:31.647Z,5.57
2023-04-14T03:50:02.606Z,4.90
2023-04-14T03:52:35.615Z,6.73
2023-04-14T03:55:06.744Z,6.40
2023-04-14T03:57:37.566Z,6.43
2023-04-14T04:00:08.518Z,6.43
2023-04-14T04:02:43.925Z,6.67
2023-04-14T04:05:13.046Z,6.63
2023-04-14T04:07:41.485Z,6.40
2023-04-14T04:10:09.059Z,6.23
2023-04-14T04:12:37.792Z,8.57
2023-04-14T04:15:08.337Z,8.00
2023-04-14T04:17:37.309Z,6.57
2023-04-14T04:20:16.473Z,6.47
2023-04-14T04:22:49.791Z,6.93
2023-04-14T04:25:17.683Z,7.00
2023-04-14T04:27:51.978Z,8.17
2023-04-14T04:30:21.843Z,6.67
2023-04-14T04:32:49.028Z,7.03
2023-04-14T04:35:17.333Z,7.70
2023-04-14T04:37:47.292Z,7.30
2023-04-14T04:40:14.879Z,7.50
2023-04-14T04:42:42.723Z,7.60
2023-04-14T04:45:12.600Z,7.23
2023-04-14T04:47:41.638Z,7.43
2023-04-14T04:50:08.724Z,8.20
2023-04-14T04:52:35.807Z,7.57
2023-04-14T04:55:02.686Z,8.33
2023-04-14T04:57:29.689Z,7.53
2023-04-14T04:59:56.749Z,8.80
2023-04-14T05:02:23.984Z,7.90
2023-04-14T05:04:51.669Z,7.43
2023-04-14T05:07:19.871Z,7.20
2023-04-14T05:09:46.736Z,8.23
2023-04-14T05:12:13.690Z,8.57
2023-04-14T05:14:40.664Z,7.47
2023-04-14T05:17:07.661Z,7.17
2023-04-14T05:19:34.548Z,7.63
2023-04-14T05:22:02.059Z,7.90
2023-04-14T05:24:28.927Z,8.00
2023-04-14T05:27:12.966Z,7.07
2023-04-14T05:29:41.333Z,8.13
2023-04-14T05:32:08.471Z,7.03
2023-04-14T05:34:35.757Z,7.37
2023-04-14T05:37:03.089Z,7.57
2023-04-14T05:39:30.134Z,7.07
2023-04-14T05:41:57.024Z,9.13
2023-04-14T05:44:24.258Z,7.43
2023-04-14T05:46:51.301Z,7.20
2023-04-14T05:49:18.316Z,7.77
2023-04-14T05:51:45.535Z,7.53
2023-04-14T05:54:12.573Z,7.80
2023-04-14T05:56:39.448Z,7.90
2023-04-14T05:59:06.469Z,6.90
2023-04-14T06:01:33.444Z,9.50
2023-04-14T06:04:01.145Z,7.10
2023-04-14T06:06:28.383Z,7.53
2023-04-14T06:08:55.309Z,7.40
2023-04-14T06:11:22.151Z,7.70
2023-04-14T06:13:50.386Z,7.60
2023-04-14T06:16:17.297Z,7.73
2023-04-14T06:18:44.344Z,6.80
2023-04-14T06:21:12.151Z,7.37
2023-04-14T06:23:39.041Z,6.77
2023-04-14T06:26:06.742Z,7.07
2023-04-14T06:28:33.746Z,7.30
2023-04-14T06:31:00.735Z,7.93
2023-04-14T06:33:27.661Z,8.30
2023-04-14T06:35:55.025Z,7.33
2023-04-14T06:38:22.042Z,7.77
2023-04-14T06:40:49.158Z,6.37
2023-04-14T06:43:18.178Z,6.73
2023-04-14T06:45:45.404Z,8.27
2023-04-14T06:48:13.339Z,6.20
2023-04-14T06:50:41.503Z,7.23
2023-04-14T06:53:09.533Z,5.30
2023-04-14T06:55:36.473Z,6.13
2023-04-14T06:58:04.003Z,5.00
2023-04-14T07:00:31.589Z,5.27
2023-04-14T07:02:58.787Z,5.00
2023-04-14T07:05:26.451Z,6.00
2023-04-14T07:07:53.404Z,5.30
2023-04-14T07:10:20.268Z,4.80
2023-04-14T07:12:47.231Z,5.03
2023-04-14T07:15:16.861Z,4.43
2023-04-14T07:17:43.962Z,3.97
2023-04-14T07:20:11.570Z,5.00
2023-04-14T07:22:39.528Z,5.83
2023-04-14T07:25:06.757Z,4.60
2023-04-14T07:27:33.774Z,6.10
2023-04-14T07:30:00.905Z,5.83
2023-04-14T07:32:28.098Z,7.50
2023-04-14T07:34:55.598Z,7.27
2023-04-14T07:37:23.818Z,7.10
2023-04-14T07:39:50.723Z,8.40
2023-04-14T07:42:17.875Z,7.37
2023-04-14T07:44:44.754Z,6.90
2023-04-14T07:47:11.907Z,7.90
2023-04-14T07:49:38.854Z,8.13
2023-04-14T07:52:07.265Z,8.80
2023-04-14T07:54:34.821Z,8.43
2023-04-14T07:57:02.407Z,8.40
2023-04-14T07:59:29.393Z,10.00
2023-04-14T08:01:56.884Z,9.00
2023-04-14T08:04:23.923Z,8.80
2023-04-14T08:06:51.231Z,9.97
2023-04-14T08:09:18.175Z,9.73
2023-04-14T08:11:45.183Z,8.43
2023-04-14T08:14:12.069Z,9.23
2023-04-14T08:16:39.099Z,9.03
2023-04-14T08:19:06.266Z,12.57
2023-04-14T08:21:33.331Z,8.27
2023-04-14T08:24:00.303Z,8.03
2023-04-14T08:26:27.612Z,9.03
2023-04-14T08:28:55.068Z,8.13
2023-04-14T08:31:25.730Z,7.73
2023-04-14T08:33:53.406Z,7.30
2023-04-14T08:36:20.522Z,7.63
2023-04-14T08:38:47.524Z,7.43
2023-04-14T08:41:17.429Z,8.83
2023-04-14T08:43:45.068Z,8.37
2023-04-14T08:46:14.542Z,8.27
2023-04-14T08:48:45.705Z,7.23
2023-04-14T08:51:34.125Z,5.37
2023-04-14T08:54:04.531Z,4.80
2023-04-14T08:56:34.987Z,4.23
2023-04-14T08:59:02.529Z,5.07
2023-04-14T09:01:30.052Z,5.20
2023-04-14T09:03:57.987Z,4.97
2023-04-14T09:06:25.530Z,5.37
2023-04-14T09:08:53.041Z,5.80
2023-04-14T09:11:20.055Z,5.70
2023-04-14T09:13:49.778Z,6.13
2023-04-14T09:16:17.553Z,5.37
2023-04-14T09:18:47.525Z,5.70
2023-04-14T09:21:50.107Z,5.17
2023-04-14T09:24:06.157Z,5.60
2023-04-14T09:26:33.537Z,5.83
2023-04-14T09:29:00.916Z,5.10
2023-04-14T09:31:28.637Z,5.87
2023-04-14T09:33:55.940Z,5.97
2023-04-14T09:36:24.892Z,5.03
2023-04-14T09:38:52.569Z,5.53
2023-04-14T09:41:26.111Z,5.57
2023-04-14T09:43:53.199Z,4.83
2023-04-14T09:46:20.658Z,5.30
2023-04-14T09:48:56.029Z,4.77
2023-04-14T09:51:27.286Z,4.43
2023-04-14T09:53:54.670Z,5.27
2023-04-14T09:56:26.346Z,4.10
2023-04-14T09:58:58.515Z,4.67
2023-04-14T10:01:29.967Z,5.00
2023-04-14T10:03:57.071Z,4.40
2023-04-14T10:06:24.928Z,5.00
2023-04-14T10:08:54.389Z,4.33
2023-04-14T10:11:38.160Z,4.07
2023-04-14T10:14:06.637Z,4.20
2023-04-14T10:16:34.206Z,5.00
2023-04-14T10:19:02.291Z,3.63
2023-04-14T10:21:29.564Z,3.80
2023-04-14T10:23:57.861Z,4.13
2023-04-14T10:26:25.103Z,3.77
2023-04-14T10:28:54.406Z,5.17
2023-04-14T10:31:29.397Z,4.10
2023-04-14T10:33:56.425Z,3.80
2023-04-14T10:36:28.436Z,3.50
2023-04-14T10:39:03.470Z,3.90
2023-04-14T10:41:47.880Z,3.63
2023-04-14T10:44:29.634Z,3.40
2023-04-14T10:46:57.976Z,4.30
2023-04-14T10:49:30.370Z,2.43
2023-04-14T10:52:06.390Z,2.80
2023-04-14T10:54:53.422Z,3.90
2023-04-14T10:57:28.082Z,3.50
2023-04-14T10:59:57.185Z,4.00
2023-04-14T11:02:29.990Z,2.23
2023-04-14T11:05:10.520Z,2.07
2023-04-14T11:07:48.363Z,3.73
2023-04-14T11:10:21.562Z,2.60
2023-04-14T11:13:03.870Z,1.73
2023-04-14T11:15:46.903Z,5.13
2023-04-14T11:18:35.689Z,2.13
2023-04-14T11:21:10.661Z,2.20
2023-04-14T11:23:38.694Z,2.30
2023-04-14T11:26:10.728Z,3.63
2023-04-14T11:28:46.194Z,2.67
2023-04-14T11:31:15.822Z,2.07
2023-04-14T11:33:44.029Z,2.43
2023-04-14T11:36:12.882Z,1.83
2023-04-14T11:38:42.637Z,1.90
2023-04-14T11:41:10.061Z,2.87
2023-04-14T11:43:46.413Z,3.90
2023-04-14T11:46:14.410Z,4.13
2023-04-14T11:48:41.546Z,2.57
2023-04-14T11:51:08.564Z,2.43
2023-04-14T11:53:36.724Z,2.93
2023-04-14T11:56:06.318Z,2.13
2023-04-14T11:58:33.817Z,2.47
2023-04-14T12:01:01.298Z,1.80
2023-04-14T12:03:30.598Z,2.47
2023-04-14T12:06:00.656Z,12.60
2023-04-14T12:08:30.463Z,13.33
2023-04-14T12:10:57.825Z,10.23
2023-04-14T12:13:26.495Z,27.63
2023-04-14T12:15:54.445Z,38.13
2023-04-14T12:18:22.140Z,6.00
2023-04-14T12:20:54.700Z,10.60
2023-04-14T12:23:22.560Z,11.43
2023-04-14T12:25:49.936Z,1.53
2023-04-14T12:28:25.590Z,2.67
2023-04-14T12:30:54.331Z,9.27
2023-04-14T12:33:26.326Z,1.37
2023-04-14T12:35:53.743Z,3.93
2023-04-14T12:38:28.053Z,2.57
2023-04-14T12:40:56.603Z,1.13
2023-04-14T12:43:37.166Z,2.70
2023-04-14T12:46:05.760Z,1.30
2023-04-14T12:48:44.738Z,3.80
2023-04-14T12:51:14.459Z,1.50
2023-04-14T12:53:42.938Z,1.27
2023-04-14T12:56:14.051Z,0.87
2023-04-14T12:58:43.642Z,1.10
2023-04-14T13:01:11.778Z,1.37
2023-04-14T13:03:45.983Z,1.93
2023-04-14T13:06:21.008Z,2.67
2023-04-14T13:08:50.355Z,0.90
2023-04-14T13:11:19.580Z,2.63
2023-04-14T13:13:47.315Z,1.33
2023-04-14T13:16:17.879Z,2.10
2023-04-14T13:18:47.357Z,2.43
2023-04-14T13:21:14.410Z,1.47
2023-04-14T13:23:41.764Z,1.87
2023-04-14T13:26:08.897Z,2.83
2023-04-14T13:28:36.992Z,1.47
2023-04-14T13:31:04.286Z,1.73
2023-04-14T13:33:33.027Z,3.60
2023-04-14T13:36:02.310Z,3.40
2023-04-14T13:38:29.660Z,2.17
2023-04-14T13:40:56.936Z,1.30
2023-04-14T13:43:24.778Z,2.10
2023-04-14T13:45:52.839Z,1.63
2023-04-14T13:48:20.141Z,1.50
2023-04-14T13:50:47.547Z,3.30
2023-04-14T13:53:14.532Z,2.83
2023-04-14T13:55:41.792Z,4.47
2023-04-14T13:58:08.862Z,1.87
2023-04-14T14:00:36.261Z,2.80
2023-04-14T14:03:03.597Z,2.23
2023-04-14T14:05:30.810Z,1.90
2023-04-14T14:07:57.917Z,2.40
2023-04-14T14:10:24.862Z,4.10
2023-04-14T14:12:51.899Z,2.10
2023-04-14T14:15:18.947Z,3.60
2023-04-14T14:17:46.252Z,2.27
2023-04-14T14:20:13.196Z,2.50
2023-04-14T14:22:40.391Z,2.90
2023-04-14T14:25:20.187Z,3.43
2023-04-14T14:27:49.167Z,2.57
2023-04-14T14:30:16.274Z,2.10
2023-04-14T14:32:43.372Z,2.40
2023-04-14T14:35:10.546Z,1.90
2023-04-14T14:37:37.571Z,2.37
2023-04-14T14:40:04.889Z,2.27
2023-04-14T14:42:32.164Z,2.10
2023-04-14T14:44:59.715Z,2.87
2023-04-14T14:47:28.855Z,3.20
2023-04-14T14:50:02.824Z,2.70
2023-04-14T14:52:32.232Z,2.93
2023-04-14T14:54:59.228Z,3.20
2023-04-14T14:57:27.028Z,3.23
2023-04-14T14:59:53.998Z,3.23
2023-04-14T15:02:21.561Z,3.37
2023-04-14T15:04:49.019Z,3.93
2023-04-14T15:07:16.051Z,3.20
2023-04-14T15:09:43.186Z,2.83
2023-04-14T15:12:10.246Z,3.10
2023-04-14T15:14:37.167Z,3.73
2023-04-14T15:17:04.051Z,6.43
2023-04-14T15:19:31.006Z,3.00
2023-04-14T15:21:58.436Z,3.97
2023-04-14T15:24:25.343Z,6.13
2023-04-14T15:26:52.316Z,3.97
2023-04-14T15:29:19.589Z,3.60
2023-04-14T15:31:46.634Z,3.77
2023-04-14T15:34:13.631Z,5.93
2023-04-14T15:36:40.599Z,4.40
2023-04-14T15:39:07.673Z,3.23
2023-04-14T15:41:36.451Z,3.20
2023-04-14T15:44:03.651Z,4.33
2023-04-14T15:46:31.110Z,3.07
2023-04-14T15:48:59.110Z,3.40
2023-04-14T15:51:26.153Z,4.07
2023-04-14T15:53:53.048Z,3.00
2023-04-14T15:56:23.326Z,3.03
2023-04-14T15:58:50.609Z,4.87
2023-04-14T16:01:17.739Z,3.23
2023-04-14T16:03:45.016Z,3.00
2023-04-14T16:06:12.320Z,3.23
2023-04-14T16:08:39.385Z,3.30
2023-04-14T16:11:06.365Z,2.83
2023-04-14T16:13:33.219Z,3.07
2023-04-14T16:16:00.287Z,2.97
2023-04-14T16:18:27.832Z,2.83
2023-04-14T16:20:54.879Z,3.83
2023-04-14T16:23:22.027Z,5.13
2023-04-14T16:25:50.052Z,2.87
2023-04-14T16:28:17.087Z,5.13
2023-04-14T16:30:44.115Z,2.40
2023-04-14T16:33:11.253Z,2.63
2023-04-14T16:35:38.317Z,2.90
2023-04-14T16:38:08.518Z,3.23
2023-04-14T16:40:36.781Z,2.17
2023-04-14T16:43:04.317Z,1.97
2023-04-14T16:45:32.204Z,2.43
2023-04-14T16:47:59.491Z,2.20
2023-04-14T16:50:27.359Z,4.43
2023-04-14T16:52:54.513Z,3.20
2023-04-14T16:55:21.553Z,2.70
2023-04-14T16:57:48.434Z,3.27
2023-04-14T17:00:16.776Z,1.50
2023-04-14T17:02:43.982Z,1.60
2023-04-14T17:05:13.221Z,4.40
2023-04-14T17:07:41.103Z,1.63
2023-04-14T17:10:08.552Z,1.90
2023-04-14T17:12:35.465Z,2.03
2023-04-14T17:15:03.693Z,1.53
2023-04-14T17:17:31.651Z,1.67
2023-04-14T17:19:58.601Z,2.00
2023-04-14T17:22:25.425Z,2.00
2023-04-14T17:24:52.633Z,1.43
2023-04-14T17:27:20.159Z,2.57
2023-04-14T17:29:47.464Z,1.70
2023-04-14T17:32:14.671Z,2.97
2023-04-14T17:34:41.573Z,1.77
2023-04-14T17:37:08.892Z,3.17
2023-04-14T17:39:35.890Z,3.37
2023-04-14T17:42:03.470Z,1.50
2023-04-14T17:44:36.194Z,2.27
2023-04-14T17:47:11.114Z,0.73
2023-04-14T17:49:38.332Z,4.10
2023-04-14T17:52:17.006Z,3.83
2023-04-14T17:54:45.069Z,1.47
2023-04-14T17:57:13.412Z,4.73
2023-04-14T17:59:41.619Z,2.53
2023-04-14T18:02:14.033Z,1.67
2023-04-14T18:04:41.372Z,0.70
2023-04-14T18:07:08.264Z,2.63
2023-04-14T18:09:35.988Z,0.87
2023-04-14T18:12:03.222Z,1.60
2023-04-14T18:14:31.095Z,4.27
2023-04-14T18:16:58.519Z,2.63
2023-04-14T18:19:25.581Z,1.90
2023-04-14T18:21:52.682Z,1.23
2023-04-14T18:26:49.449Z,2.50
2023-04-14T18:29:16.315Z,2.40
2023-04-14T18:31:43.196Z,2.13
2023-04-14T18:34:11.704Z,1.13
2023-04-14T18:36:38.781Z,3.30
2023-04-14T18:39:07.099Z,1.37
2023-04-14T18:41:34.227Z,3.87
2023-04-14T18:44:01.178Z,2.37
2023-04-14T18:46:28.523Z,2.83
2023-04-14T18:48:55.577Z,4.20
2023-04-14T18:51:22.433Z,3.10
2023-04-14T18:53:49.542Z,1.50
2023-04-14T18:56:16.386Z,1.73
2023-04-14T18:58:43.284Z,5.40
2023-04-14T19:01:10.477Z,3.93
2023-04-14T19:03:37.728Z,1.17
2023-04-14T19:06:04.899Z,1.47
2023-04-14T19:08:31.914Z,1.30
2023-04-14T19:10:59.354Z,3.20
2023-04-14T19:13:26.556Z,4.50
2023-04-14T19:16:02.685Z,2.70
2023-04-14T19:18:29.662Z,5.03
2023-04-14T19:20:57.128Z,4.13
2023-04-14T19:23:24.263Z,1.80
2023-04-14T19:25:51.085Z,3.60
2023-04-14T19:28:18.265Z,3.17
2023-04-14T19:30:45.994Z,1.87
2023-04-14T19:33:13.107Z,2.03
2023-04-14T19:35:40.140Z,2.10
2023-04-14T19:38:08.620Z,3.20
2023-04-14T19:40:35.638Z,3.93
2023-04-14T19:43:02.667Z,2.00
2023-04-14T19:45:29.959Z,3.20
2023-04-14T19:47:57.429Z,4.30
2023-04-14T19:50:24.340Z,4.57
2023-04-14T19:52:52.400Z,5.67
2023-04-14T19:55:19.361Z,2.20
2023-04-14T19:57:47.080Z,2.17
2023-04-14T20:00:15.723Z,1.87
2023-04-14T20:02:42.949Z,3.40
2023-04-14T20:05:10.069Z,1.87
2023-04-14T20:07:37.063Z,2.43
2023-04-14T20:10:04.192Z,2.07
2023-04-14T20:12:31.167Z,4.97
2023-04-14T20:14:58.264Z,2.23
2023-04-14T20:17:27.291Z,2.07
2023-04-14T20:19:54.776Z,2.93
2023-04-14T20:22:21.767Z,3.10
2023-04-14T20:24:48.647Z,3.87
2023-04-14T20:27:15.582Z,3.40
2023-04-14T20:29:42.500Z,3.57
2023-04-14T20:32:09.685Z,4.77
2023-04-14T20:34:36.522Z,4.83
2023-04-14T20:37:03.564Z,2.63
2023-04-14T20:39:30.610Z,2.00
2023-04-14T20:41:57.561Z,2.83
2023-04-14T20:44:24.524Z,5.10
2023-04-14T20:46:52.044Z,4.37
2023-04-14T20:49:18.916Z,1.83
2023-04-14T20:51:46.912Z,3.63
2023-04-14T20:54:13.981Z,2.70
2023-04-14T20:56:41.115Z,2.27
2023-04-14T20:59:08.047Z,2.10
2023-04-14T21:01:35.071Z,2.60
2023-04-14T21:04:02.101Z,2.67
2023-04-14T21:06:32.415Z,2.37
2023-04-14T21:09:00.112Z,2.10
2023-04-14T21:11:27.380Z,2.93
2023-04-14T21:15:44.848Z,2.40
2023-04-14T21:16:41.869Z,3.10
2023-04-14T21:19:09.454Z,3.87
2023-04-14T21:21:36.870Z,5.23
2023-04-14T21:24:04.024Z,2.00
2023-04-14T21:26:31.482Z,5.63
2023-04-14T21:28:58.400Z,3.27
2023-04-14T21:31:26.176Z,9.40
2023-04-14T21:33:53.125Z,4.23
2023-04-14T21:36:20.549Z,3.07
2023-04-14T21:38:48.071Z,5.03
2023-04-14T21:41:16.211Z,2.37
2023-04-14T21:43:43.486Z,7.23
2023-04-14T21:46:10.588Z,3.43
2023-04-14T21:48:37.563Z,1.87
2023-04-14T21:51:04.987Z,3.63
2023-04-14T21:53:32.311Z,4.80
2023-04-14T21:56:09.733Z,2.17
2023-04-14T21:58:41.259Z,1.83
2023-04-14T22:01:10.293Z,4.20
2023-04-14T22:03:40.875Z,2.30
2023-04-14T22:06:10.011Z,3.27
2023-04-14T22:08:38.610Z,2.77
2023-04-14T22:11:07.013Z,1.60
2023-04-14T22:13:34.032Z,2.23
2023-04-14T22:16:01.012Z,2.10
2023-04-14T22:18:28.810Z,2.73
2023-04-14T22:20:55.762Z,1.50
2023-04-14T22:23:23.263Z,4.07
2023-04-14T22:25:50.899Z,3.20
2023-04-14T22:28:17.766Z,2.63
2023-04-14T22:30:44.856Z,6.13
2023-04-14T22:33:12.028Z,2.73
2023-04-14T22:35:39.593Z,4.80
2023-04-14T22:38:07.131Z,2.90
2023-04-14T22:40:34.098Z,6.33
2023-04-14T22:43:02.107Z,2.03
2023-04-14T22:45:29.327Z,2.27
2023-04-14T22:47:56.346Z,2.00
2023-04-14T22:50:23.408Z,2.93
2023-04-14T22:52:50.323Z,2.57
2023-04-14T22:55:17.274Z,2.43
2023-04-14T22:57:44.244Z,3.17
2023-04-14T23:00:11.899Z,3.70
2023-04-14T23:02:41.099Z,1.60
2023-04-14T23:05:10.103Z,1.73
2023-04-14T23:07:37.840Z,2.20
2023-04-14T23:10:09.141Z,4.73
2023-04-14T23:12:36.664Z,9.50
2023-04-14T23:15:04.535Z,4.30
2023-04-14T23:17:33.981Z,3.87
2023-04-14T23:20:01.768Z,3.63
2023-04-14T23:22:29.663Z,3.50
2023-04-14T23:24:56.681Z,3.70
2023-04-14T23:27:23.592Z,2.47
2023-04-14T23:29:50.640Z,2.77
2023-04-14T23:32:17.541Z,2.23
2023-04-14T23:34:44.399Z,2.57
2023-04-14T23:37:12.566Z,3.40
2023-04-14T23:39:39.377Z,2.80
2023-04-14T23:42:06.885Z,2.23
2023-04-14T23:44:33.792Z,3.27
2023-04-14T23:47:01.084Z,3.00
2023-04-14T23:49:34.186Z,1.93
2023-04-14T23:52:03.423Z,1.73
2023-04-14T23:54:31.746Z,2.97
2023-04-14T23:56:58.768Z,2.50
2023-04-14T23:59:26.364Z,3.37
